createdAt,value
2019-04-16T00:01:38.231Z,11.80
2019-04-16T00:07:12.002Z,11.60
2019-04-16T00:09:59.853Z,11.60
2019-04-16T00:13:00.457Z,11.50
2019-04-16T00:15:29.926Z,11.30
2019-04-16T00:17:59.368Z,11.30
2019-04-16T00:20:28.840Z,11.40
2019-04-16T00:23:07.915Z,11.30
2019-04-16T00:25:37.290Z,11.30
2019-04-16T00:28:06.864Z,11.40
2019-04-16T00:30:36.431Z,11.40
2019-04-16T00:33:07.812Z,11.40
2019-04-16T00:35:36.940Z,11.40
2019-04-16T00:38:06.361Z,11.40
2019-04-16T00:40:35.939Z,11.30
2019-04-16T00:43:05.487Z,11.40
2019-04-16T00:45:36.178Z,11.30
2019-04-16T00:48:05.816Z,11.40
2019-04-16T00:50:35.387Z,11.30
2019-04-16T00:53:07.818Z,11.30
2019-04-16T00:55:36.161Z,11.20
2019-04-16T00:58:05.617Z,11.10
2019-04-16T01:00:34.962Z,11.20
2019-04-16T01:03:04.331Z,11.10
2019-04-16T01:05:35.230Z,11.10
2019-04-16T01:08:05.308Z,10.90
2019-04-16T01:10:34.914Z,10.90
2019-04-16T01:13:04.359Z,10.90
2019-04-16T01:15:34.227Z,10.90
2019-04-16T01:18:04.569Z,10.90
2019-04-16T01:20:35.507Z,10.90
2019-04-16T01:23:04.871Z,10.80
2019-04-16T01:25:34.609Z,10.80
2019-04-16T01:28:06.579Z,10.80
2019-04-16T01:30:45.934Z,10.80
2019-04-16T01:33:25.094Z,10.80
2019-04-16T01:36:00.456Z,10.80
2019-04-16T01:38:37.684Z,10.70
2019-04-16T01:41:10.427Z,10.70
2019-04-16T01:43:39.828Z,10.70
2019-04-16T01:46:09.491Z,10.80
2019-04-16T01:48:39.809Z,10.70
2019-04-16T01:51:09.682Z,10.70
2019-04-16T01:53:39.184Z,10.60
2019-04-16T01:56:09.440Z,10.50
2019-04-16T01:58:38.891Z,10.50
2019-04-16T02:01:11.176Z,10.50
2019-04-16T02:03:39.802Z,10.50
2019-04-16T02:06:09.200Z,10.50
2019-04-16T02:08:38.737Z,10.50
2019-04-16T02:11:10.586Z,10.50
2019-04-16T02:13:40.446Z,10.40
2019-04-16T02:16:09.881Z,10.40
2019-04-16T02:18:39.231Z,10.40
2019-04-16T02:21:10.520Z,10.40
2019-04-16T02:23:39.671Z,10.40
2019-04-16T02:26:09.035Z,10.40
2019-04-16T02:28:38.599Z,10.40
2019-04-16T02:31:13.947Z,10.40
2019-04-16T02:33:39.476Z,10.40
2019-04-16T02:36:08.979Z,10.40
2019-04-16T02:38:38.397Z,10.30
2019-04-16T02:41:08.108Z,10.30
2019-04-16T02:43:41.079Z,10.30
2019-04-16T02:46:09.393Z,10.20
2019-04-16T02:48:39.571Z,10.20
2019-04-16T02:51:22.651Z,10.20
